Time;durP1;ratioP1;P1;durP2;ratioP2;P2;SDS_P1;SDS_P2;PMS_P1;PMS_P2;Temp;Humidity;BMP_temperature;BMP_pressure;BME280_temperature;BME280_humidity;BME280_pressure;Samples;Min_cycle;Max_cycle;Signal;HPM_P1;HPM_P2
2022/03/13 00:00:46;;;;;;;5.40;3.92;;;24.00;26.60;;;;;;4946057;28;20428;-74
2022/03/13 00:03:14;;;;;;;6.57;3.90;;;24.00;26.60;;;;;;4964932;28;20474;-72
2022/03/13 00:05:46;;;;;;;5.05;3.60;;;23.90;26.60;;;;;;4967638;28;20904;-75
2022/03/13 00:08:19;;;;;;;4.63;3.30;;;24.00;26.60;;;;;;4963609;28;20385;-75
2022/03/13 00:10:50;;;;;;;5.78;3.40;;;23.90;26.60;;;;;;4967359;28;20408;-75
2022/03/13 00:13:20;;;;;;;4.72;3.17;;;23.90;26.50;;;;;;4963638;28;20832;-75
2022/03/13 00:15:46;;;;;;;4.72;3.38;;;23.90;26.50;;;;;;4962592;28;20406;-75
2022/03/13 00:18:12;;;;;;;4.63;3.50;;;23.90;26.50;;;;;;4967569;28;20925;-74
2022/03/13 00:20:39;;;;;;;4.40;3.30;;;24.00;26.40;;;;;;4967369;28;20439;-74
2022/03/13 00:23:05;;;;;;;5.63;3.58;;;23.90;26.30;;;;;;4964159;28;20393;-74
2022/03/13 00:25:31;;;;;;;4.87;3.33;;;23.90;26.30;;;;;;4963790;28;20404;-73
2022/03/13 00:27:57;;;;;;;4.37;3.27;;;23.90;26.20;;;;;;4964294;28;20475;-72
2022/03/13 00:30:23;;;;;;;4.22;3.08;;;23.90;26.20;;;;;;4965687;28;20476;-74
2022/03/13 00:32:49;;;;;;;4.10;3.10;;;23.90;26.20;;;;;;4966765;28;20436;-74
2022/03/13 00:35:16;;;;;;;4.38;3.20;;;23.90;26.20;;;;;;4965243;28;20449;-73
2022/03/13 00:37:41;;;;;;;4.38;3.00;;;23.90;26.20;;;;;;4967850;28;20389;-75
2022/03/13 00:40:08;;;;;;;4.40;3.33;;;23.90;26.30;;;;;;4964465;28;20402;-73
2022/03/13 00:42:37;;;;;;;4.55;3.40;;;23.90;26.20;;;;;;4966909;28;20384;-74
2022/03/13 00:45:04;;;;;;;4.53;3.30;;;23.80;26.30;;;;;;4963954;28;20459;-75
2022/03/13 00:47:30;;;;;;;4.18;3.15;;;23.80;26.30;;;;;;4961705;28;20428;-75
2022/03/13 00:49:55;;;;;;;4.03;2.90;;;23.80;26.30;;;;;;4964530;28;20429;-75
2022/03/13 00:52:21;;;;;;;3.83;3.08;;;23.80;26.30;;;;;;4966339;28;20389;-75
2022/03/13 00:54:47;;;;;;;4.75;3.08;;;23.70;26.30;;;;;;4966590;28;20532;-73
2022/03/13 00:57:13;;;;;;;4.25;2.95;;;23.70;26.30;;;;;;4944546;28;20806;-72
2022/03/13 00:59:39;;;;;;;4.18;2.97;;;23.80;26.30;;;;;;4964787;28;20759;-75
2022/03/13 01:02:05;;;;;;;4.30;3.00;;;23.80;26.30;;;;;;4965804;28;20396;-75
2022/03/13 01:04:31;;;;;;;4.35;3.00;;;23.80;26.20;;;;;;4967165;28;20408;-76
2022/03/13 01:06:56;;;;;;;3.85;2.80;;;23.80;26.20;;;;;;4961438;28;20784;-75
2022/03/13 01:09:22;;;;;;;3.77;3.00;;;23.80;26.20;;;;;;4964349;28;20495;-72
2022/03/13 01:11:48;;;;;;;3.97;2.95;;;23.70;26.20;;;;;;4960680;28;20410;-76
2022/03/13 01:14:16;;;;;;;3.70;2.70;;;23.80;26.20;;;;;;4964863;28;20510;-74
2022/03/13 01:16:43;;;;;;;3.75;2.90;;;23.80;26.20;;;;;;4967270;28;20464;-73
2022/03/13 01:19:09;;;;;;;3.57;2.70;;;23.80;26.20;;;;;;4972721;28;20840;-74
2022/03/13 01:21:37;;;;;;;4.00;2.90;;;23.70;26.10;;;;;;4973398;28;20467;-75
2022/03/13 01:24:05;;;;;;;3.50;2.70;;;23.70;26.10;;;;;;4973325;28;20436;-74
2022/03/13 01:26:37;;;;;;;3.88;2.97;;;23.70;26.10;;;;;;4973618;28;20396;-74
2022/03/13 01:29:08;;;;;;;3.80;2.90;;;23.70;26.10;;;;;;4972888;28;20932;-75
2022/03/13 01:31:37;;;;;;;3.90;2.95;;;23.70;26.10;;;;;;4973273;28;20392;-75
2022/03/13 01:34:05;;;;;;;3.50;2.83;;;23.70;26.10;;;;;;4972935;28;20420;-73
2022/03/13 01:36:31;;;;;;;3.47;2.60;;;23.70;26.10;;;;;;4972805;28;20411;-71
2022/03/13 01:38:59;;;;;;;3.88;2.80;;;23.70;26.10;;;;;;4972802;28;20882;-75
2022/03/13 01:41:27;;;;;;;4.15;2.90;;;23.70;26.00;;;;;;4972570;28;20404;-75
2022/03/13 01:43:53;;;;;;;3.55;2.60;;;23.70;26.00;;;;;;4972931;28;20775;-74
2022/03/13 01:46:19;;;;;;;3.63;2.78;;;23.70;26.00;;;;;;4972939;28;20407;-76
2022/03/13 01:49:01;;;;;;;4.00;2.77;;;23.60;25.90;;;;;;4973187;28;20487;-75
2022/03/13 01:51:28;;;;;;;3.20;2.67;;;23.70;26.00;;;;;;4956119;28;20961;-74
2022/03/13 01:53:56;;;;;;;3.30;2.53;;;23.70;26.00;;;;;;4972786;28;20464;-74
2022/03/13 01:56:22;;;;;;;3.42;2.63;;;23.60;26.00;;;;;;4972900;28;20388;-75
2022/03/13 01:58:55;;;;;;;3.10;2.50;;;23.60;26.10;;;;;;4972919;28;20400;-75
2022/03/13 02:01:23;;;;;;;3.63;2.65;;;23.60;26.10;;;;;;4972459;28;20393;-71
2022/03/13 02:03:49;;;;;;;3.53;2.60;;;23.60;26.00;;;;;;4972880;28;20409;-75
2022/03/13 02:06:16;;;;;;;3.72;2.47;;;23.60;26.10;;;;;;4974745;28;20414;-73
2022/03/13 02:08:44;;;;;;;3.50;2.55;;;23.60;26.10;;;;;;4972764;28;20479;-74
2022/03/13 02:11:14;;;;;;;3.45;2.58;;;23.60;26.00;;;;;;4972266;28;20475;-75
2022/03/13 02:13:40;;;;;;;2.88;2.38;;;23.60;26.00;;;;;;4972580;28;20403;-75
2022/03/13 02:16:07;;;;;;;3.38;2.60;;;23.60;26.00;;;;;;4972606;28;20795;-75
2022/03/13 02:18:32;;;;;;;3.58;2.50;;;23.50;25.90;;;;;;4972214;28;20424;-71
2022/03/13 02:20:58;;;;;;;3.30;2.40;;;23.50;26.00;;;;;;4955485;28;20413;-74
2022/03/13 02:23:26;;;;;;;3.22;2.55;;;23.50;26.00;;;;;;4972354;28;20396;-74
2022/03/13 02:25:55;;;;;;;3.07;2.60;;;23.50;25.90;;;;;;4955179;28;20462;-73
2022/03/13 02:28:27;;;;;;;3.70;2.70;;;23.50;25.90;;;;;;4955325;28;20400;-74
2022/03/13 02:30:56;;;;;;;3.20;2.50;;;23.50;25.90;;;;;;4955255;28;20415;-74
2022/03/13 02:33:23;;;;;;;3.03;2.40;;;23.50;25.90;;;;;;4954888;28;20502;-74
2022/03/13 02:35:56;;;;;;;3.13;2.63;;;23.50;25.90;;;;;;4955188;28;20929;-73
2022/03/13 02:38:24;;;;;;;3.08;2.58;;;23.50;25.90;;;;;;4972704;28;20485;-72
2022/03/13 02:40:51;;;;;;;3.95;2.72;;;23.50;25.80;;;;;;4955163;28;20400;-74
2022/03/13 02:43:17;;;;;;;3.00;2.50;;;23.50;25.90;;;;;;4954775;28;20384;-75
2022/03/13 02:45:43;;;;;;;3.13;2.40;;;23.50;25.80;;;;;;4956195;28;20540;-74
2022/03/13 02:48:11;;;;;;;3.15;2.50;;;23.50;25.80;;;;;;4955202;28;20461;-75
2022/03/13 02:50:37;;;;;;;3.65;2.50;;;23.50;25.80;;;;;;4972444;28;20400;-75
2022/03/13 02:53:03;;;;;;;3.10;2.40;;;23.50;25.80;;;;;;4955706;28;20457;-75
2022/03/13 02:55:29;;;;;;;3.35;2.30;;;23.50;25.80;;;;;;4958778;28;20428;-75
2022/03/13 02:57:56;;;;;;;3.22;2.60;;;23.50;25.80;;;;;;4958757;28;20400;-75
2022/03/13 03:00:49;;;;;;;3.70;2.40;;;23.50;25.80;;;;;;4976263;28;20485;-74
2022/03/13 03:03:20;;;;;;;3.33;2.80;;;23.50;25.80;;;;;;4975604;28;20384;-75
2022/03/13 03:05:46;;;;;;;3.80;2.70;;;23.50;25.80;;;;;;4975882;28;20479;-75
2022/03/13 03:08:12;;;;;;;3.20;2.40;;;23.50;25.90;;;;;;4975889;28;20392;-75
2022/03/13 03:10:38;;;;;;;3.25;2.50;;;23.50;25.80;;;;;;4976095;28;20395;-75
2022/03/13 03:13:07;;;;;;;3.28;2.67;;;23.50;25.80;;;;;;4958500;28;20400;-75
2022/03/13 03:15:33;;;;;;;4.03;2.60;;;23.40;25.70;;;;;;4958637;28;20466;-74
2022/03/13 03:17:59;;;;;;;3.80;2.90;;;23.50;25.80;;;;;;4958069;28;20403;-76
2022/03/13 03:20:25;;;;;;;3.65;2.80;;;23.50;25.80;;;;;;4975499;28;20400;-72
2022/03/13 03:22:53;;;;;;;3.92;2.60;;;23.50;25.80;;;;;;4975682;28;20404;-74
2022/03/13 03:25:27;;;;;;;3.60;2.60;;;23.40;25.80;;;;;;4975100;28;20385;-75
2022/03/13 03:27:55;;;;;;;3.58;2.83;;;23.40;25.80;;;;;;4975532;28;20431;-74
2022/03/13 03:30:22;;;;;;;3.42;2.80;;;23.40;25.80;;;;;;4976224;28;20802;-72
2022/03/13 03:32:49;;;;;;;3.35;2.70;;;23.40;25.90;;;;;;4975533;28;20399;-72
2022/03/13 03:35:23;;;;;;;3.63;2.83;;;23.40;25.80;;;;;;4974848;28;20427;-74
2022/03/13 03:37:50;;;;;;;3.80;2.92;;;23.40;25.90;;;;;;4975444;28;20423;-76
2022/03/13 03:40:16;;;;;;;4.20;3.13;;;23.40;25.80;;;;;;4975344;28;20408;-74
2022/03/13 03:42:43;;;;;;;3.78;2.70;;;23.40;25.90;;;;;;4957907;28;20404;-73
2022/03/13 03:45:09;;;;;;;3.83;2.80;;;23.40;25.80;;;;;;4974819;28;20392;-75
2022/03/13 03:47:35;;;;;;;3.80;2.80;;;23.40;25.80;;;;;;4975491;28;20389;-73
2022/03/13 03:50:01;;;;;;;3.80;3.00;;;23.40;25.80;;;;;;4975974;28;20887;-75
2022/03/13 03:52:27;;;;;;;3.72;2.88;;;23.30;25.80;;;;;;4975087;28;20423;-74
2022/03/13 03:54:52;;;;;;;3.77;2.80;;;23.30;25.80;;;;;;4974938;28;20778;-74
2022/03/13 03:57:19;;;;;;;3.70;2.80;;;23.30;25.80;;;;;;4974551;28;21266;-71
2022/03/13 03:59:45;;;;;;;4.40;3.00;;;23.30;26.30;;;;;;4974842;28;20421;-74
2022/03/13 04:02:12;;;;;;;4.20;3.15;;;23.30;25.80;;;;;;4975016;28;20397;-75
2022/03/13 04:04:39;;;;;;;4.00;3.00;;;23.30;25.80;;;;;;4973336;28;20487;-75
2022/03/13 04:07:05;;;;;;;3.53;3.03;;;23.30;25.80;;;;;;4974581;28;20424;-75
2022/03/13 04:09:30;;;;;;;3.78;2.95;;;23.30;25.80;;;;;;4974784;28;20396;-75
2022/03/13 04:11:57;;;;;;;3.60;2.97;;;23.30;25.70;;;;;;4974707;28;20396;-71
2022/03/13 04:14:23;;;;;;;4.20;2.90;;;23.30;25.70;;;;;;4974510;28;20424;-72
2022/03/13 04:16:49;;;;;;;3.72;2.83;;;23.30;25.80;;;;;;4974710;28;20447;-75
2022/03/13 04:19:14;;;;;;;3.77;3.10;;;23.30;25.70;;;;;;4974132;28;20486;-75
2022/03/13 04:21:41;;;;;;;4.00;2.80;;;23.30;25.70;;;;;;4974532;28;20400;-75
2022/03/13 04:24:08;;;;;;;3.70;2.75;;;23.30;25.70;;;;;;4974661;28;20397;-75
2022/03/13 04:26:34;;;;;;;3.65;2.85;;;23.20;25.70;;;;;;4974405;28;20404;-72
2022/03/13 04:29:00;;;;;;;3.93;2.80;;;23.20;25.70;;;;;;4975071;28;20443;-74
2022/03/13 04:31:26;;;;;;;3.80;2.80;;;23.20;25.70;;;;;;4974474;28;20401;-73
2022/03/13 04:33:51;;;;;;;3.20;2.65;;;23.20;25.70;;;;;;4974088;28;20809;-71
2022/03/13 04:36:21;;;;;;;3.95;2.70;;;23.20;25.70;;;;;;4974319;28;20411;-75
2022/03/13 04:38:47;;;;;;;3.90;2.80;;;23.20;25.70;;;;;;4956895;28;20964;-75
2022/03/13 04:41:13;;;;;;;4.53;2.67;;;23.20;25.70;;;;;;4973436;28;20436;-74
2022/03/13 04:43:39;;;;;;;3.58;2.78;;;23.20;25.70;;;;;;4975674;28;20399;-75
2022/03/13 04:46:05;;;;;;;4.70;2.80;;;23.20;25.70;;;;;;4956764;28;20542;-73
2022/03/13 04:48:32;;;;;;;3.58;2.70;;;23.20;25.70;;;;;;4956719;28;20392;-75
2022/03/13 04:50:59;;;;;;;3.50;2.40;;;23.20;25.70;;;;;;4955842;28;20532;-75
2022/03/13 04:53:26;;;;;;;3.30;2.90;;;23.10;26.10;;;;;;4956266;28;20404;-75
2022/03/13 04:55:52;;;;;;;4.32;2.70;;;23.10;25.70;;;;;;4956499;28;20422;-71
2022/03/13 04:58:19;;;;;;;3.70;2.70;;;23.10;25.70;;;;;;4973896;28;20392;-71
2022/03/13 05:00:47;;;;;;;3.13;2.53;;;23.10;25.70;;;;;;4974058;28;20446;-71
2022/03/13 05:03:13;;;;;;;3.72;2.75;;;23.10;25.80;;;;;;4973340;28;20396;-71
2022/03/13 05:05:40;;;;;;;3.75;2.83;;;23.10;25.70;;;;;;4956678;28;20989;-71
2022/03/13 05:08:15;;;;;;;3.28;2.70;;;23.10;25.80;;;;;;4957222;28;20408;-71
2022/03/13 05:10:44;;;;;;;3.60;2.70;;;23.10;25.70;;;;;;4957253;28;20427;-70
2022/03/13 05:13:12;;;;;;;3.20;2.45;;;23.00;25.70;;;;;;4956275;28;20798;-75
2022/03/13 05:15:37;;;;;;;3.90;2.75;;;23.00;25.70;;;;;;4973461;28;20424;-73
2022/03/13 05:18:03;;;;;;;3.35;2.50;;;23.00;25.70;;;;;;4957183;28;20427;-74
2022/03/13 05:20:30;;;;;;;3.22;2.55;;;23.00;25.60;;;;;;4955339;28;20400;-72
2022/03/13 05:22:56;;;;;;;3.47;2.80;;;23.00;25.60;;;;;;4955662;28;20443;-73
2022/03/13 05:25:25;;;;;;;3.35;2.47;;;23.00;25.70;;;;;;4972771;28;20400;-74
2022/03/13 05:27:51;;;;;;;2.90;2.47;;;23.00;25.60;;;;;;4956216;28;20388;-74
2022/03/13 05:30:20;;;;;;;3.50;2.60;;;23.00;25.60;;;;;;4973191;28;20396;-74
2022/03/13 05:32:48;;;;;;;3.40;2.60;;;23.10;25.60;;;;;;4973302;28;20482;-72
2022/03/13 05:35:15;;;;;;;3.17;2.55;;;23.00;25.60;;;;;;4954810;28;20427;-75
2022/03/13 05:37:42;;;;;;;2.80;2.35;;;23.00;25.50;;;;;;4956632;28;20436;-75
2022/03/13 05:40:10;;;;;;;3.40;2.40;;;23.00;25.60;;;;;;4956470;28;20932;-75
2022/03/13 05:42:36;;;;;;;3.40;2.63;;;23.00;25.60;;;;;;4973175;28;20403;-75
2022/03/13 05:45:02;;;;;;;3.45;2.47;;;23.00;25.70;;;;;;4973791;28;20400;-75
2022/03/13 05:47:27;;;;;;;3.33;2.57;;;22.90;25.70;;;;;;4972558;28;20411;-75
2022/03/13 05:49:53;;;;;;;3.20;2.60;;;22.90;25.60;;;;;;4973536;28;20404;-71
2022/03/13 05:52:20;;;;;;;2.97;2.40;;;22.90;25.60;;;;;;4972953;28;20415;-71
2022/03/13 05:54:45;;;;;;;3.25;2.30;;;22.90;25.60;;;;;;4955818;28;20420;-74
2022/03/13 05:57:11;;;;;;;3.03;2.47;;;22.90;25.50;;;;;;4973082;28;20393;-73
2022/03/13 05:59:38;;;;;;;3.42;2.45;;;22.90;25.50;;;;;;4972738;28;20400;-71
2022/03/13 06:02:05;;;;;;;3.23;2.50;;;22.90;25.60;;;;;;4973014;28;20396;-75
2022/03/13 06:04:39;;;;;;;2.90;2.20;;;22.90;25.50;;;;;;4952813;28;20406;-72
2022/03/13 06:07:05;;;;;;;2.92;2.33;;;22.90;25.60;;;;;;4949413;29;20454;-72
2022/03/13 06:09:32;;;;;;;2.95;2.20;;;22.90;25.50;;;;;;4934942;29;20908;-75
2022/03/13 06:11:58;;;;;;;3.10;2.50;;;22.90;25.60;;;;;;4934426;29;20450;-74
2022/03/13 06:14:25;;;;;;;3.15;2.60;;;22.90;25.50;;;;;;4935098;29;20430;-72
2022/03/13 06:16:51;;;;;;;3.25;2.50;;;22.90;25.60;;;;;;4934187;29;20392;-72
2022/03/13 06:19:16;;;;;;;3.15;2.50;;;22.90;25.50;;;;;;4916780;29;20764;-71
2022/03/13 06:21:42;;;;;;;3.13;2.28;;;22.90;25.60;;;;;;4916914;29;20462;-73
2022/03/13 06:24:08;;;;;;;3.23;2.30;;;22.90;25.50;;;;;;4934634;29;20408;-74
2022/03/13 06:26:36;;;;;;;3.25;2.70;;;22.90;25.50;;;;;;4917238;29;20439;-71
2022/03/13 06:29:03;;;;;;;3.25;2.40;;;22.80;25.90;;;;;;4938365;29;20396;-71
2022/03/13 06:31:28;;;;;;;2.65;2.38;;;22.90;25.50;;;;;;4920276;29;20809;-71
2022/03/13 06:33:54;;;;;;;3.58;2.72;;;22.80;25.50;;;;;;4954948;28;21010;-75
2022/03/13 06:36:19;;;;;;;3.23;2.60;;;22.80;25.50;;;;;;4939689;29;20491;-73
2022/03/13 06:38:45;;;;;;;3.28;2.33;;;22.80;25.50;;;;;;4939778;29;20477;-71
2022/03/13 06:41:11;;;;;;;3.70;2.40;;;22.80;25.40;;;;;;4939799;29;20494;-72
2022/03/13 06:43:38;;;;;;;3.65;2.30;;;22.80;25.40;;;;;;4932481;29;20412;-77
2022/03/13 06:46:03;;;;;;;3.10;2.60;;;22.90;25.90;;;;;;4956395;29;20853;-71
2022/03/13 06:48:31;;;;;;;5.72;3.90;;;22.90;25.90;;;;;;4939629;29;20493;-76
2022/03/13 06:50:57;;;;;;;4.30;2.90;;;23.00;28.40;;;;;;4958646;29;20492;-71
2022/03/13 06:53:24;;;;;;;6.07;3.33;;;22.90;26.50;;;;;;4939957;29;20486;-76
2022/03/13 06:55:52;;;;;;;3.90;2.90;;;22.80;26.00;;;;;;4956789;29;20516;-78
2022/03/13 06:58:21;;;;;;;4.60;2.70;;;22.80;25.90;;;;;;4939550;29;20396;-77
2022/03/13 07:00:47;;;;;;;5.00;2.60;;;22.70;25.80;;;;;;4939758;29;20441;-72
2022/03/13 07:03:13;;;;;;;3.60;2.40;;;22.70;26.00;;;;;;4939223;29;20401;-71
2022/03/13 07:05:40;;;;;;;3.15;2.53;;;22.70;26.20;;;;;;4956419;29;20510;-75
2022/03/13 07:08:07;;;;;;;2.90;2.30;;;22.70;26.20;;;;;;4957024;29;20756;-76
2022/03/13 07:10:32;;;;;;;3.60;2.90;;;22.70;26.20;;;;;;4956823;29;20492;-76
2022/03/13 07:12:59;;;;;;;4.20;2.50;;;22.70;26.20;;;;;;4939180;29;20506;-73
2022/03/13 07:15:26;;;;;;;3.42;2.40;;;22.70;26.20;;;;;;4955921;29;20426;-73
2022/03/13 07:17:53;;;;;;;3.70;2.53;;;22.70;26.10;;;;;;4956247;29;20396;-74
2022/03/13 07:20:19;;;;;;;4.45;2.78;;;22.70;26.20;;;;;;4956133;29;20402;-74
2022/03/13 07:22:46;;;;;;;3.45;2.60;;;22.80;26.20;;;;;;4956153;29;20399;-77
2022/03/13 07:25:14;;;;;;;3.08;2.35;;;22.70;26.30;;;;;;4939185;29;20402;-73
2022/03/13 07:27:40;;;;;;;3.90;2.22;;;22.80;26.30;;;;;;4956538;29;20489;-75
2022/03/13 07:30:14;;;;;;;3.85;2.50;;;22.80;26.80;;;;;;4940857;29;20835;-75
2022/03/13 07:32:43;;;;;;;5.43;2.33;;;22.80;26.30;;;;;;4939125;29;20398;-72
2022/03/13 07:35:10;;;;;;;5.68;2.92;;;22.80;26.60;;;;;;4939350;29;20504;-72
2022/03/13 07:37:37;;;;;;;3.95;2.97;;;22.80;27.60;;;;;;4938699;29;20405;-70
2022/03/13 07:40:04;;;;;;;3.05;2.20;;;22.80;28.60;;;;;;4940121;29;20417;-70
2022/03/13 07:42:30;;;;;;;3.85;2.42;;;22.80;28.00;;;;;;4956411;29;20744;-74
2022/03/13 07:44:55;;;;;;;4.33;2.43;;;22.90;28.00;;;;;;4955119;28;20406;-76
2022/03/13 07:47:22;;;;;;;3.17;2.38;;;22.80;27.50;;;;;;4947345;29;20427;-70
2022/03/13 07:49:47;;;;;;;4.10;2.42;;;22.90;27.20;;;;;;4923576;29;20419;-75
2022/03/13 07:52:13;;;;;;;2.90;2.40;;;22.90;27.20;;;;;;4935963;29;20392;-73
2022/03/13 07:54:39;;;;;;;3.17;2.40;;;22.90;27.60;;;;;;4952731;29;20421;-75
2022/03/13 07:57:05;;;;;;;3.17;2.40;;;23.00;27.40;;;;;;4938908;29;20398;-73
2022/03/13 07:59:31;;;;;;;3.60;2.28;;;23.00;27.90;;;;;;4955223;28;20406;-73
2022/03/13 08:01:56;;;;;;;2.77;2.13;;;23.00;27.00;;;;;;4955710;29;20403;-70
2022/03/13 08:04:24;;;;;;;3.80;2.40;;;23.00;26.90;;;;;;4955727;29;20398;-76
2022/03/13 08:06:50;;;;;;;3.80;2.30;;;23.10;27.80;;;;;;4957027;29;20438;-70
2022/03/13 08:09:16;;;;;;;3.42;2.38;;;23.10;28.60;;;;;;4955757;29;20500;-74
2022/03/13 08:11:42;;;;;;;3.60;2.38;;;23.20;28.20;;;;;;4948331;29;20404;-74
2022/03/13 08:14:08;;;;;;;4.00;2.30;;;23.30;28.80;;;;;;4935784;29;20416;-76
2022/03/13 08:16:35;;;;;;;4.57;2.20;;;23.30;28.80;;;;;;4935936;29;20414;-70
2022/03/13 08:19:01;;;;;;;5.78;2.13;;;23.40;28.80;;;;;;4936000;29;20494;-75
2022/03/13 08:21:27;;;;;;;3.72;2.15;;;23.50;28.60;;;;;;4935363;29;20478;-75
2022/03/13 08:23:52;;;;;;;4.00;2.10;;;23.50;28.80;;;;;;4934859;29;20890;-73
2022/03/13 08:26:18;;;;;;;4.18;2.13;;;23.40;28.10;;;;;;4936603;29;20399;-72
2022/03/13 08:28:44;;;;;;;3.75;2.30;;;23.50;28.40;;;;;;4935399;29;20487;-76
2022/03/13 08:31:11;;;;;;;4.63;2.20;;;23.50;28.60;;;;;;4919221;29;20569;-74
2022/03/13 08:33:36;;;;;;;4.05;2.20;;;23.50;29.00;;;;;;4935489;29;20508;-76
2022/03/13 08:36:03;;;;;;;3.03;2.05;;;23.60;28.40;;;;;;4919774;29;20530;-77
2022/03/13 08:38:29;;;;;;;4.90;1.80;;;23.70;28.40;;;;;;4945291;29;20436;-73
2022/03/13 08:40:55;;;;;;;3.63;2.07;;;23.80;28.20;;;;;;4939550;29;20442;-76
2022/03/13 08:43:21;;;;;;;3.20;2.20;;;23.80;28.20;;;;;;4950093;29;20389;-73
2022/03/13 08:45:47;;;;;;;3.13;2.22;;;23.80;27.50;;;;;;4939816;29;20901;-72
2022/03/13 08:48:13;;;;;;;3.25;1.92;;;23.80;27.90;;;;;;4935679;29;20446;-76
2022/03/13 08:50:39;;;;;;;3.58;2.10;;;23.80;27.60;;;;;;4935879;28;20409;-76
2022/03/13 08:53:05;;;;;;;3.00;2.00;;;23.80;27.10;;;;;;4936749;29;20396;-77
2022/03/13 08:55:31;;;;;;;3.33;2.25;;;23.80;27.10;;;;;;4935172;29;20463;-75
2022/03/13 08:57:57;;;;;;;5.90;2.53;;;23.80;26.90;;;;;;4935411;29;20446;-72
2022/03/13 09:00:24;;;;;;;7.00;2.63;;;23.80;26.80;;;;;;4936249;29;20491;-75
2022/03/13 09:02:50;;;;;;;6.07;2.05;;;23.80;27.30;;;;;;4935555;29;20395;-75
2022/03/13 09:05:17;;;;;;;6.10;2.13;;;23.80;26.80;;;;;;4917909;29;20403;-75
2022/03/13 09:07:42;;;;;;;5.32;2.30;;;23.80;26.60;;;;;;4935011;29;20396;-74
2022/03/13 09:10:09;;;;;;;5.22;2.35;;;23.80;26.60;;;;;;4935115;29;20829;-75
2022/03/13 09:12:35;;;;;;;3.60;2.20;;;23.90;26.50;;;;;;4935050;29;20384;-74
2022/03/13 09:15:03;;;;;;;4.00;2.42;;;23.80;26.50;;;;;;4935930;29;20477;-75
2022/03/13 09:17:29;;;;;;;4.18;2.13;;;23.90;26.50;;;;;;4934510;29;20763;-72
2022/03/13 09:19:58;;;;;;;3.78;2.10;;;23.90;26.40;;;;;;4934923;29;20475;-72
2022/03/13 09:22:28;;;;;;;3.22;2.30;;;23.90;26.30;;;;;;4934434;29;20921;-72
2022/03/13 09:24:57;;;;;;;3.50;2.10;;;24.00;26.20;;;;;;4934384;29;20411;-72
2022/03/13 09:27:24;;;;;;;4.50;2.15;;;24.00;26.10;;;;;;4934473;29;20400;-73
2022/03/13 09:29:50;;;;;;;3.05;2.22;;;24.00;26.10;;;;;;4934816;29;20406;-72
2022/03/13 09:32:16;;;;;;;3.35;2.20;;;24.00;26.10;;;;;;4934809;29;20396;-73
2022/03/13 09:34:42;;;;;;;3.63;2.17;;;24.00;26.00;;;;;;4935305;29;20463;-75
2022/03/13 09:37:07;;;;;;;3.37;2.10;;;24.00;26.00;;;;;;4934748;29;20466;-75
2022/03/13 09:39:34;;;;;;;2.97;2.00;;;24.10;26.10;;;;;;4934419;29;20414;-71
2022/03/13 09:41:59;;;;;;;3.20;2.00;;;24.20;26.10;;;;;;4934833;29;20402;-74
2022/03/13 09:44:25;;;;;;;2.75;1.88;;;24.10;25.90;;;;;;4934563;29;20391;-70
2022/03/13 09:46:51;;;;;;;3.67;2.50;;;24.10;26.00;;;;;;4935270;29;20435;-71
2022/03/13 09:49:20;;;;;;;2.90;2.10;;;24.10;25.90;;;;;;4934284;29;20436;-71
2022/03/13 09:51:46;;;;;;;3.47;2.20;;;24.10;25.90;;;;;;4934495;29;20910;-75
2022/03/13 09:54:13;;;;;;;2.40;1.88;;;24.10;25.90;;;;;;4934926;29;20411;-71
2022/03/13 09:56:39;;;;;;;3.20;2.10;;;24.20;25.90;;;;;;4934594;29;20402;-74
2022/03/13 09:59:04;;;;;;;3.05;2.10;;;24.20;25.80;;;;;;4934438;29;20414;-71
2022/03/13 10:01:30;;;;;;;3.03;2.30;;;24.20;25.90;;;;;;4933961;29;20433;-71
2022/03/13 10:03:56;;;;;;;3.03;2.30;;;24.20;25.80;;;;;;4934811;29;20412;-72
2022/03/13 10:06:22;;;;;;;3.25;2.10;;;24.20;25.70;;;;;;4934382;28;20535;-73
2022/03/13 10:08:48;;;;;;;2.80;2.17;;;24.20;25.70;;;;;;4951484;28;20872;-73
2022/03/13 10:11:14;;;;;;;3.45;2.38;;;24.20;25.70;;;;;;4961167;28;20390;-72
2022/03/13 10:13:40;;;;;;;2.75;2.08;;;24.30;25.80;;;;;;4946614;28;20404;-74
2022/03/13 10:16:08;;;;;;;2.75;2.10;;;24.30;25.70;;;;;;4944349;28;20854;-73
2022/03/13 10:18:35;;;;;;;2.50;1.92;;;24.30;26.20;;;;;;4963188;28;20400;-71
2022/03/13 10:21:11;;;;;;;3.70;2.17;;;24.30;25.70;;;;;;4945031;28;20396;-74
2022/03/13 10:23:37;;;;;;;2.65;2.00;;;24.30;25.60;;;;;;4957626;28;20394;-71
2022/03/13 10:26:05;;;;;;;3.05;2.00;;;24.30;25.60;;;;;;4970150;28;20440;-74
2022/03/13 10:28:39;;;;;;;3.08;2.03;;;24.40;25.70;;;;;;4972203;28;20408;-73
2022/03/13 10:31:13;;;;;;;3.10;2.20;;;24.40;25.70;;;;;;4963205;28;20393;-73
2022/03/13 10:33:44;;;;;;;2.78;2.10;;;24.40;25.70;;;;;;4966462;28;20401;-71
2022/03/13 10:36:17;;;;;;;2.55;2.03;;;24.40;25.70;;;;;;4938785;28;20529;-74
2022/03/13 10:38:45;;;;;;;2.60;1.92;;;24.40;25.70;;;;;;4965972;28;20407;-72
2022/03/13 10:41:12;;;;;;;2.60;2.10;;;24.50;25.70;;;;;;4962521;28;20392;-71
2022/03/13 10:43:54;;;;;;;2.70;2.00;;;24.50;25.70;;;;;;4957255;28;20982;-74
2022/03/13 10:46:27;;;;;;;2.40;1.80;;;24.50;25.70;;;;;;4950135;29;20410;-74
2022/03/13 10:48:54;;;;;;;2.70;2.20;;;24.50;25.60;;;;;;4952589;29;20955;-72
2022/03/13 10:51:48;;;;;;;2.40;2.00;;;24.60;25.70;;;;;;4952110;29;20402;-73
2022/03/13 10:54:34;;;;;;;2.88;2.30;;;24.60;25.60;;;;;;4968994;28;20772;-73
2022/03/13 10:57:19;;;;;;;2.83;2.20;;;24.60;25.60;;;;;;4961677;28;20407;-74
2022/03/13 10:59:45;;;;;;;2.80;2.10;;;24.70;25.60;;;;;;4956906;28;20441;-72
2022/03/13 11:02:16;;;;;;;2.63;1.95;;;24.70;25.60;;;;;;4953475;28;20801;-71
2022/03/13 11:04:55;;;;;;;2.42;2.00;;;24.70;25.60;;;;;;4965280;28;20778;-73
2022/03/13 11:07:22;;;;;;;2.50;2.03;;;24.70;25.60;;;;;;4963908;28;20422;-72
2022/03/13 11:09:49;;;;;;;2.73;2.20;;;24.70;25.50;;;;;;4954524;28;20480;-73
2022/03/13 11:12:20;;;;;;;2.78;2.00;;;24.80;25.60;;;;;;4955746;28;20388;-74
2022/03/13 11:14:50;;;;;;;2.77;2.10;;;24.80;25.50;;;;;;4966241;28;20497;-72
2022/03/13 11:17:20;;;;;;;2.80;2.00;;;24.80;25.40;;;;;;4967090;28;20397;-73
2022/03/13 11:19:51;;;;;;;2.70;2.08;;;24.90;25.50;;;;;;4974872;28;20499;-72
2022/03/13 11:22:20;;;;;;;2.47;2.00;;;24.90;25.50;;;;;;4959287;28;20902;-74
2022/03/13 11:24:51;;;;;;;3.53;2.13;;;24.90;25.50;;;;;;4968823;28;20402;-74
2022/03/13 11:27:17;;;;;;;2.60;2.00;;;25.00;25.40;;;;;;4967484;28;20475;-74
2022/03/13 11:29:46;;;;;;;2.75;2.10;;;25.00;25.30;;;;;;4960082;28;20397;-72
2022/03/13 11:32:41;;;;;;;2.40;1.90;;;25.00;25.40;;;;;;4954439;28;20755;-73
2022/03/13 11:35:13;;;;;;;2.58;2.00;;;25.00;25.40;;;;;;4948044;28;20451;-71
2022/03/13 11:37:41;;;;;;;2.30;2.00;;;25.00;25.40;;;;;;4960486;28;20414;-72
2022/03/13 11:40:08;;;;;;;2.70;2.05;;;25.10;25.40;;;;;;4971480;28;20410;-74
2022/03/13 11:42:54;;;;;;;2.35;1.90;;;25.10;25.30;;;;;;4955569;28;20449;-74
2022/03/13 11:45:30;;;;;;;3.30;2.30;;;25.20;25.40;;;;;;4969527;28;20399;-76
2022/03/13 11:48:19;;;;;;;2.75;2.10;;;25.20;25.20;;;;;;4958465;28;20398;-74
2022/03/13 11:50:54;;;;;;;8.63;2.97;;;25.20;25.30;;;;;;4962371;28;20864;-72
2022/03/13 11:53:25;;;;;;;4.03;2.83;;;25.20;24.60;;;;;;4963090;28;20401;-72
2022/03/13 11:56:10;;;;;;;3.00;2.20;;;25.10;24.80;;;;;;4970668;28;20523;-73
2022/03/13 11:58:52;;;;;;;3.42;2.40;;;25.20;24.90;;;;;;4947518;28;20810;-72
2022/03/13 12:01:20;;;;;;;3.20;2.10;;;25.30;24.50;;;;;;4965550;28;20453;-74
2022/03/13 12:04:04;;;;;;;4.10;2.40;;;25.40;24.50;;;;;;4974628;28;20392;-72
2022/03/13 12:06:39;;;;;;;7.25;2.10;;;25.40;25.10;;;;;;4928452;28;20404;-73
2022/03/13 12:09:12;;;;;;;6.30;2.22;;;25.50;25.40;;;;;;4947588;29;20394;-73
2022/03/13 12:11:42;;;;;;;8.02;2.38;;;25.50;25.40;;;;;;4968320;28;20487;-74
2022/03/13 12:14:12;;;;;;;6.13;2.28;;;25.50;26.10;;;;;;4958438;28;20394;-74
2022/03/13 12:16:41;;;;;;;7.47;2.35;;;25.70;26.10;;;;;;4968885;28;20789;-75
2022/03/13 12:19:07;;;;;;;6.10;2.28;;;25.80;25.90;;;;;;4955445;29;20402;-74
2022/03/13 12:21:33;;;;;;;4.60;2.17;;;26.00;25.90;;;;;;4967681;28;20697;-74
2022/03/13 12:24:18;;;;;;;3.75;2.42;;;26.10;26.20;;;;;;4958301;28;20386;-74
2022/03/13 12:26:46;;;;;;;4.25;2.35;;;26.20;26.60;;;;;;4965657;28;20402;-75
2022/03/13 12:29:17;;;;;;;6.57;2.50;;;26.30;25.80;;;;;;4965171;28;20399;-74
2022/03/13 12:31:50;;;;;;;3.95;2.50;;;26.40;26.90;;;;;;4958520;28;20886;-76
2022/03/13 12:34:34;;;;;;;3.30;2.33;;;26.40;27.10;;;;;;4952627;28;20417;-73
2022/03/13 12:37:07;;;;;;;3.35;2.50;;;26.50;25.80;;;;;;4963245;28;20459;-75
2022/03/13 12:39:33;;;;;;;4.65;2.30;;;26.60;25.90;;;;;;4959822;28;20453;-73
2022/03/13 12:42:01;;;;;;;4.07;2.40;;;26.60;26.30;;;;;;4970294;28;20396;-74
2022/03/13 12:44:30;;;;;;;3.22;1.98;;;26.70;25.60;;;;;;4958977;28;20396;-74
2022/03/13 12:46:56;;;;;;;4.07;2.25;;;26.80;25.50;;;;;;4965180;28;20746;-74
2022/03/13 12:49:28;;;;;;;4.65;2.40;;;26.80;25.90;;;;;;4966127;28;20395;-73
2022/03/13 12:51:54;;;;;;;4.55;2.40;;;26.90;25.40;;;;;;4940024;28;20828;-73